Time;durP1;ratioP1;P1;durP2;ratioP2;P2;SDS_P1;SDS_P2;PMS_P1;PMS_P2;Temp;Humidity;BMP_temperature;BMP_pressure;BME280_temperature;BME280_humidity;BME280_pressure;Samples;Min_cycle;Max_cycle;Signal;HPM_P1;HPM_P2
2023/10/10 00:02:17;;;;;;;7.20;6.17;;;12.80;99.90;;;;;;4995184;28;20537;-63
2023/10/10 00:04:47;;;;;;;6.87;6.27;;;12.70;99.90;;;;;;4994223;28;20473;-64
2023/10/10 00:07:14;;;;;;;6.23;5.60;;;12.70;99.90;;;;;;4994656;28;20457;-65
2023/10/10 00:09:43;;;;;;;8.90;5.67;;;12.70;99.90;;;;;;4994472;28;20482;-64
2023/10/10 00:12:10;;;;;;;6.13;5.53;;;12.70;99.90;;;;;;4994899;28;20505;-64
2023/10/10 00:14:37;;;;;;;6.87;6.17;;;12.70;99.90;;;;;;4994564;28;20495;-65
2023/10/10 00:17:07;;;;;;;7.90;6.40;;;12.70;99.90;;;;;;4994776;28;20840;-64
2023/10/10 00:19:42;;;;;;;7.23;6.60;;;12.70;99.90;;;;;;4994418;28;20507;-64
2023/10/10 00:22:10;;;;;;;5.83;5.33;;;12.60;99.90;;;;;;4994557;28;20458;-65
2023/10/10 00:24:38;;;;;;;7.13;6.13;;;12.60;99.90;;;;;;5006303;23;20599;-63
2023/10/10 00:27:12;;;;;;;6.07;5.47;;;12.60;99.90;;;;;;4955952;29;20455;-63
2023/10/10 00:29:42;;;;;;;7.37;6.37;;;12.60;99.90;;;;;;4955147;29;20447;-63
2023/10/10 00:32:16;;;;;;;7.83;5.77;;;12.60;99.90;;;;;;4955555;29;20948;-63
2023/10/10 00:34:47;;;;;;;7.47;6.13;;;12.60;99.90;;;;;;4953988;28;20576;-63
2023/10/10 00:37:17;;;;;;;7.00;6.27;;;12.50;99.90;;;;;;4955816;28;20452;-64
2023/10/10 00:39:52;;;;;;;8.33;6.70;;;12.50;99.90;;;;;;4955682;29;20449;-63
2023/10/10 00:42:21;;;;;;;9.03;5.50;;;12.50;99.90;;;;;;4955555;29;20455;-63
2023/10/10 00:44:48;;;;;;;7.47;6.00;;;12.50;99.90;;;;;;4954687;28;20471;-63
2023/10/10 00:47:26;;;;;;;9.60;6.43;;;12.50;99.90;;;;;;4955350;29;20452;-63
2023/10/10 00:49:53;;;;;;;9.70;6.20;;;12.40;99.90;;;;;;4955254;29;20456;-63
2023/10/10 00:52:22;;;;;;;6.53;5.83;;;12.50;99.90;;;;;;4955371;29;20452;-63
2023/10/10 00:54:50;;;;;;;7.03;6.43;;;12.40;99.90;;;;;;4955109;28;20496;-63
2023/10/10 00:57:19;;;;;;;6.43;5.80;;;12.40;99.90;;;;;;4955145;29;20448;-63
2023/10/10 00:59:48;;;;;;;7.20;5.80;;;12.50;99.90;;;;;;4954872;29;20448;-63
2023/10/10 01:02:17;;;;;;;9.27;8.40;;;12.40;99.90;;;;;;4955294;29;20569;-63
2023/10/10 01:04:55;;;;;;;7.07;6.43;;;12.40;99.90;;;;;;4955208;28;20533;-63
2023/10/10 01:07:25;;;;;;;6.13;5.53;;;12.40;99.90;;;;;;4954374;28;20453;-63
2023/10/10 01:09:56;;;;;;;11.97;5.73;;;12.40;99.90;;;;;;4954738;29;20480;-63
2023/10/10 01:12:24;;;;;;;9.30;6.27;;;12.30;99.90;;;;;;4955382;29;20493;-63
2023/10/10 01:14:55;;;;;;;6.83;5.97;;;12.30;99.90;;;;;;4954797;28;20498;-63
2023/10/10 01:17:28;;;;;;;8.83;6.00;;;12.30;99.90;;;;;;4955006;29;20449;-63
2023/10/10 01:19:58;;;;;;;9.00;6.13;;;12.30;99.90;;;;;;4954765;29;20503;-63
2023/10/10 01:22:37;;;;;;;7.23;5.70;;;12.30;99.90;;;;;;4954639;29;20536;-63
2023/10/10 01:25:28;;;;;;;6.70;5.87;;;12.20;99.90;;;;;;4954576;28;20480;-63
2023/10/10 01:27:56;;;;;;;8.33;6.10;;;12.20;99.90;;;;;;4950708;28;20949;-63
2023/10/10 01:30:43;;;;;;;6.70;6.07;;;12.20;99.90;;;;;;4954415;29;20453;-63
2023/10/10 01:33:14;;;;;;;8.03;6.90;;;12.20;99.90;;;;;;4935459;29;20458;-63
2023/10/10 01:35:41;;;;;;;8.73;5.50;;;12.20;99.90;;;;;;4935153;29;21057;-63
2023/10/10 01:38:27;;;;;;;7.83;7.13;;;12.10;99.90;;;;;;4938686;29;20453;-63
2023/10/10 01:40:54;;;;;;;9.10;7.70;;;12.10;99.90;;;;;;4954210;29;21202;-63
2023/10/10 01:43:21;;;;;;;8.20;6.10;;;12.10;99.90;;;;;;4954449;29;20453;-63
2023/10/10 01:46:08;;;;;;;6.00;5.30;;;12.10;99.90;;;;;;4954466;28;20548;-63
2023/10/10 01:48:38;;;;;;;6.57;5.97;;;12.00;99.90;;;;;;4953267;29;20449;-63
2023/10/10 01:51:08;;;;;;;6.03;5.53;;;12.00;99.90;;;;;;4953806;29;20460;-63
2023/10/10 01:53:40;;;;;;;8.63;6.43;;;12.00;99.90;;;;;;4954388;29;20459;-64
2023/10/10 01:56:07;;;;;;;9.67;5.40;;;12.00;99.90;;;;;;4954294;28;20948;-63
2023/10/10 01:58:36;;;;;;;7.57;6.83;;;11.90;99.90;;;;;;4954011;29;20515;-63
2023/10/10 02:01:12;;;;;;;7.83;7.03;;;11.90;99.90;;;;;;4954266;29;20565;-63
2023/10/10 02:03:40;;;;;;;7.70;6.10;;;11.80;99.90;;;;;;4954048;29;20452;-63
2023/10/10 02:06:09;;;;;;;7.77;6.67;;;11.80;99.90;;;;;;4953821;28;20499;-64
2023/10/10 02:08:39;;;;;;;6.37;5.87;;;11.80;99.90;;;;;;4953893;29;20453;-63
2023/10/10 02:11:07;;;;;;;10.90;7.60;;;11.80;99.90;;;;;;4954065;29;20452;-63
2023/10/10 02:13:39;;;;;;;7.70;6.43;;;11.80;99.90;;;;;;4953998;29;20460;-63
2023/10/10 02:16:06;;;;;;;6.77;6.17;;;11.70;99.90;;;;;;4953849;28;20552;-63
2023/10/10 02:18:39;;;;;;;8.20;5.90;;;11.70;99.90;;;;;;4953272;28;20555;-63
2023/10/10 02:21:09;;;;;;;7.40;6.70;;;11.70;99.90;;;;;;4953819;29;20878;-63
2023/10/10 02:23:36;;;;;;;10.43;6.67;;;11.70;99.90;;;;;;4953524;29;21034;-63
2023/10/10 02:26:14;;;;;;;9.33;6.63;;;11.70;99.90;;;;;;4953229;28;20535;-63
2023/10/10 02:28:47;;;;;;;6.70;5.73;;;11.70;99.90;;;;;;4953215;29;20456;-63
2023/10/10 02:31:16;;;;;;;7.43;5.80;;;11.60;99.90;;;;;;4953129;29;20449;-63
2023/10/10 02:33:48;;;;;;;7.93;6.20;;;11.60;99.90;;;;;;4953377;29;20460;-63
2023/10/10 02:36:29;;;;;;;6.77;6.17;;;11.60;99.90;;;;;;4953562;28;20600;-63
2023/10/10 02:39:18;;;;;;;6.93;6.20;;;11.60;99.90;;;;;;4953314;29;20484;-63
2023/10/10 02:41:50;;;;;;;6.37;5.77;;;11.60;99.90;;;;;;4953459;29;20456;-63
2023/10/10 02:44:38;;;;;;;12.70;6.70;;;11.60;99.90;;;;;;4953515;28;20472;-63
2023/10/10 02:47:05;;;;;;;8.30;7.40;;;11.50;99.90;;;;;;4953334;29;20456;-63
2023/10/10 02:49:37;;;;;;;7.30;6.00;;;11.50;99.90;;;;;;4953036;29;21127;-63
2023/10/10 02:52:06;;;;;;;8.83;6.40;;;11.50;99.90;;;;;;4953198;29;20944;-63
2023/10/10 02:54:34;;;;;;;8.93;6.50;;;11.50;99.90;;;;;;4953399;28;20519;-63
2023/10/10 02:59:50;;;;;;;8.50;5.80;;;11.50;99.90;;;;;;4953002;29;20479;-63
2023/10/10 03:02:19;;;;;;;8.03;7.23;;;11.40;99.90;;;;;;4953129;29;20996;-63
2023/10/10 03:05:06;;;;;;;8.07;6.10;;;11.40;99.90;;;;;;4953288;28;21205;-63
2023/10/10 03:07:35;;;;;;;9.20;6.97;;;11.40;99.90;;;;;;4952561;29;20451;-64
2023/10/10 03:10:22;;;;;;;9.20;6.70;;;11.40;99.90;;;;;;4953278;29;20456;-63
2023/10/10 03:12:52;;;;;;;7.67;6.03;;;11.40;99.90;;;;;;4953193;29;20451;-63
2023/10/10 03:15:31;;;;;;;6.40;5.80;;;11.30;99.90;;;;;;4951777;28;20492;-63
2023/10/10 03:18:19;;;;;;;8.47;6.20;;;11.30;99.90;;;;;;4953029;29;20440;-63
2023/10/10 03:21:06;;;;;;;10.80;7.40;;;11.30;99.90;;;;;;4953252;29;20502;-66
2023/10/10 03:23:41;;;;;;;7.23;6.53;;;11.30;99.90;;;;;;4953096;29;21023;-63
2023/10/10 03:26:07;;;;;;;6.97;6.30;;;11.20;99.90;;;;;;4952684;28;20879;-63
2023/10/10 03:28:41;;;;;;;7.43;6.07;;;11.20;99.90;;;;;;4952771;29;20463;-63
2023/10/10 03:31:08;;;;;;;7.97;6.00;;;11.20;99.90;;;;;;4954771;28;20450;-63
2023/10/10 03:33:37;;;;;;;7.07;6.37;;;11.20;99.90;;;;;;4956929;29;20511;-63
2023/10/10 03:36:13;;;;;;;9.80;8.40;;;11.20;99.90;;;;;;4956532;28;20869;-63
2023/10/10 03:39:16;;;;;;;7.27;6.10;;;11.20;99.90;;;;;;4956065;29;20451;-63
2023/10/10 05:23:34;;;;;;;8.43;6.50;;;10.40;99.90;;;;;;4931096;29;20465;-63
2023/10/10 05:26:02;;;;;;;9.87;6.33;;;10.40;99.90;;;;;;4951678;29;20916;-64
2023/10/10 05:28:32;;;;;;;13.00;8.17;;;10.40;99.90;;;;;;4954199;29;20464;-63
2023/10/10 05:31:02;;;;;;;8.67;6.60;;;10.40;99.90;;;;;;4947028;29;20460;-63
2023/10/10 05:33:30;;;;;;;12.90;7.20;;;10.40;99.90;;;;;;4935775;29;20457;-63
2023/10/10 05:36:06;;;;;;;7.97;6.50;;;10.40;99.90;;;;;;4935311;29;20508;-63
2023/10/10 05:38:39;;;;;;;8.80;7.90;;;10.40;99.90;;;;;;4935258;29;20460;-63
2023/10/10 05:41:07;;;;;;;7.90;7.10;;;10.40;99.90;;;;;;4935491;29;20484;-64
2023/10/10 05:43:34;;;;;;;8.97;8.17;;;10.40;99.90;;;;;;4935335;29;20836;-63
2023/10/10 05:46:03;;;;;;;8.07;7.27;;;10.40;99.90;;;;;;4935550;29;20845;-63
2023/10/10 05:48:31;;;;;;;6.23;5.63;;;10.30;99.90;;;;;;4945894;29;20453;-63
2023/10/10 05:50:58;;;;;;;8.33;6.57;;;10.40;99.90;;;;;;4954257;29;20455;-63
2023/10/10 05:53:25;;;;;;;7.87;7.17;;;10.40;99.90;;;;;;4953882;28;20455;-63
2023/10/10 05:55:58;;;;;;;8.50;7.73;;;10.30;99.90;;;;;;4954238;28;20573;-63
2023/10/10 05:58:26;;;;;;;11.10;7.80;;;10.30;99.90;;;;;;4951111;29;20507;-63
2023/10/10 06:00:53;;;;;;;9.80;7.17;;;10.30;99.90;;;;;;4943410;29;20453;-63
2023/10/10 06:03:21;;;;;;;8.53;7.70;;;10.30;99.90;;;;;;4945653;29;20456;-63
2023/10/10 06:05:49;;;;;;;11.03;7.70;;;10.30;99.90;;;;;;4954160;28;20530;-63
2023/10/10 06:08:17;;;;;;;9.80;7.30;;;10.40;99.90;;;;;;4937572;29;20540;-63
2023/10/10 06:10:44;;;;;;;10.70;7.27;;;10.40;99.90;;;;;;4942674;29;20546;-63
2023/10/10 06:13:12;;;;;;;12.03;8.90;;;10.40;99.90;;;;;;4951986;28;20464;-63
2023/10/10 06:15:39;;;;;;;10.87;6.97;;;10.30;99.90;;;;;;4958522;28;20619;-63
2023/10/10 06:18:15;;;;;;;9.73;7.70;;;10.40;99.90;;;;;;4953195;29;21007;-64
2023/10/10 06:20:42;;;;;;;11.00;8.30;;;10.40;99.90;;;;;;4953631;29;20476;-63
2023/10/10 06:23:09;;;;;;;11.07;8.50;;;10.40;99.90;;;;;;4953046;29;20512;-63
2023/10/10 06:25:37;;;;;;;8.23;7.43;;;10.40;99.90;;;;;;4953165;28;20573;-63
2023/10/10 06:28:06;;;;;;;8.20;7.40;;;10.40;99.90;;;;;;4953216;29;20845;-62
2023/10/10 06:30:36;;;;;;;9.80;7.50;;;10.40;99.90;;;;;;4953538;29;20555;-63
2023/10/10 06:33:13;;;;;;;8.90;8.00;;;10.40;99.90;;;;;;4953522;29;20990;-63
2023/10/10 06:35:40;;;;;;;8.53;7.47;;;10.40;99.90;;;;;;4953055;28;20492;-63
2023/10/10 06:38:10;;;;;;;16.40;8.00;;;10.50;99.90;;;;;;4953253;29;20820;-63
2023/10/10 06:40:42;;;;;;;9.50;8.23;;;10.50;99.90;;;;;;4953405;28;20514;-63
2023/10/10 06:43:09;;;;;;;6.60;6.00;;;10.50;99.90;;;;;;4953162;29;20456;-63
2023/10/10 06:45:39;;;;;;;13.00;7.40;;;10.50;99.90;;;;;;4953156;28;20497;-63
2023/10/10 06:48:08;;;;;;;11.40;7.53;;;10.60;99.90;;;;;;4952587;29;20956;-63
2023/10/10 06:50:38;;;;;;;8.70;6.90;;;10.60;99.90;;;;;;4952519;29;20527;-63
2023/10/10 06:53:05;;;;;;;7.97;7.20;;;10.60;99.90;;;;;;4953052;29;20491;-63
2023/10/10 06:55:37;;;;;;;12.20;7.57;;;10.70;99.90;;;;;;4952852;28;20575;-63
2023/10/10 06:58:05;;;;;;;8.07;7.03;;;10.80;99.90;;;;;;4952918;29;21031;-63
2023/10/10 07:03:19;;;;;;;11.07;7.53;;;10.80;99.90;;;;;;4951028;29;20439;-63
2023/10/10 07:05:46;;;;;;;9.13;8.23;;;10.90;99.90;;;;;;4952490;28;20551;-63
2023/10/10 07:08:24;;;;;;;12.33;10.70;;;11.00;99.90;;;;;;4952418;29;20538;-63
2023/10/10 07:10:50;;;;;;;9.27;7.37;;;11.00;99.90;;;;;;4952750;29;20458;-63
2023/10/10 07:13:19;;;;;;;9.30;7.90;;;11.00;99.90;;;;;;4933775;29;20900;-63
2023/10/10 07:15:51;;;;;;;12.20;8.30;;;11.10;99.90;;;;;;4929885;29;20511;-63
2023/10/10 07:18:23;;;;;;;9.83;8.53;;;11.10;99.90;;;;;;4925578;29;20959;-63
2023/10/10 07:21:08;;;;;;;10.03;8.10;;;11.20;99.90;;;;;;4932977;29;20479;-63
2023/10/10 07:23:41;;;;;;;10.93;7.70;;;11.30;99.90;;;;;;4915527;29;20466;-63
2023/10/10 07:26:18;;;;;;;8.80;7.97;;;11.40;99.90;;;;;;4931081;29;20859;-64
2023/10/10 07:28:48;;;;;;;9.20;8.27;;;11.40;99.90;;;;;;4941675;29;20924;-63
2023/10/10 07:33:45;;;;;;;6.93;6.23;;;11.60;99.90;;;;;;4967554;28;20476;-64
2023/10/10 07:36:13;;;;;;;7.80;7.10;;;11.70;99.90;;;;;;4971816;28;20487;-64
2023/10/10 07:38:40;;;;;;;8.27;7.23;;;11.70;99.90;;;;;;4971592;28;20459;-64
2023/10/10 07:41:09;;;;;;;8.50;7.43;;;11.80;99.90;;;;;;4971936;28;20534;-64
2023/10/10 07:43:35;;;;;;;9.40;7.13;;;11.90;99.90;;;;;;4971760;28;20482;-65
2023/10/10 07:46:18;;;;;;;12.00;7.50;;;11.90;99.90;;;;;;4971577;28;20440;-64
2023/10/10 07:48:46;;;;;;;7.77;7.07;;;12.10;99.90;;;;;;4971482;28;20483;-64
2023/10/10 07:51:27;;;;;;;8.93;7.10;;;12.20;99.90;;;;;;4970660;28;20458;-64
2023/10/10 07:54:00;;;;;;;8.97;7.17;;;12.20;99.90;;;;;;4958870;28;20511;-64
2023/10/10 07:56:30;;;;;;;8.77;7.70;;;12.30;99.90;;;;;;4958254;28;20496;-64
2023/10/10 07:58:57;;;;;;;10.13;8.23;;;12.40;99.90;;;;;;4954835;28;20460;-65
2023/10/10 08:01:24;;;;;;;8.47;7.50;;;12.50;99.90;;;;;;4971303;28;20451;-64
2023/10/10 08:03:52;;;;;;;9.30;7.83;;;12.60;99.90;;;;;;4956195;28;20467;-64
2023/10/10 08:06:21;;;;;;;9.03;8.10;;;12.70;99.90;;;;;;4965618;28;20540;-64
2023/10/10 08:08:56;;;;;;;10.97;7.17;;;12.80;99.90;;;;;;4962535;28;20976;-64
2023/10/10 08:11:35;;;;;;;7.07;6.37;;;12.90;99.90;;;;;;4952392;28;20456;-64
2023/10/10 08:14:06;;;;;;;9.47;8.40;;;13.00;99.90;;;;;;4953597;28;20581;-64
2023/10/10 08:16:34;;;;;;;9.30;6.87;;;13.10;99.90;;;;;;4957887;28;20493;-64
2023/10/10 08:19:06;;;;;;;8.63;7.80;;;13.20;99.90;;;;;;4972542;28;20563;-64
2023/10/10 08:21:37;;;;;;;11.00;7.70;;;13.40;99.90;;;;;;4974308;28;20470;-64
2023/10/10 08:24:06;;;;;;;10.30;8.90;;;13.50;99.90;;;;;;4966918;28;21047;-64
2023/10/10 08:26:39;;;;;;;13.33;7.50;;;13.70;99.90;;;;;;4974648;28;20495;-64
2023/10/10 08:29:07;;;;;;;9.03;6.47;;;13.80;99.90;;;;;;4963456;28;20548;-63
2023/10/10 08:31:36;;;;;;;9.60;7.20;;;13.80;99.90;;;;;;4961968;28;20457;-64
2023/10/10 08:34:05;;;;;;;16.63;7.50;;;14.00;99.90;;;;;;4955614;28;20507;-64
2023/10/10 08:36:32;;;;;;;9.23;7.20;;;14.10;99.90;;;;;;4972259;28;20919;-64
2023/10/10 08:39:12;;;;;;;9.83;7.40;;;14.20;99.90;;;;;;4954645;28;20541;-64
2023/10/10 08:41:41;;;;;;;10.17;7.87;;;14.40;99.90;;;;;;4961240;28;20533;-64
2023/10/10 08:44:10;;;;;;;9.17;6.90;;;14.50;99.90;;;;;;4955634;28;20461;-65
2023/10/10 08:46:46;;;;;;;11.83;10.63;;;14.60;99.90;;;;;;4973376;28;20552;-64
2023/10/10 08:49:15;;;;;;;8.70;7.90;;;14.80;99.90;;;;;;4967535;28;20463;-64
2023/10/10 08:51:43;;;;;;;8.97;7.33;;;14.90;99.90;;;;;;4969623;28;20499;-64
2023/10/10 08:54:11;;;;;;;8.70;6.97;;;15.10;99.90;;;;;;4971067;28;20487;-64
2023/10/10 08:56:40;;;;;;;8.00;7.23;;;15.20;99.90;;;;;;4959188;28;20495;-64
2023/10/10 08:59:09;;;;;;;11.60;7.23;;;15.40;99.90;;;;;;4972693;28;20559;-64
2023/10/10 09:01:36;;;;;;;12.40;7.60;;;15.50;99.90;;;;;;4972218;28;20560;-65
2023/10/10 09:04:04;;;;;;;9.80;7.57;;;15.70;99.90;;;;;;4968079;28;20842;-64
2023/10/10 09:06:43;;;;;;;8.90;7.67;;;15.90;99.90;;;;;;4973380;28;20456;-64
2023/10/10 09:09:33;;;;;;;8.73;7.80;;;16.00;99.90;;;;;;4972274;28;20457;-65
2023/10/10 09:12:02;;;;;;;11.33;8.77;;;16.20;99.90;;;;;;4973377;28;20564;-65
2023/10/10 09:14:40;;;;;;;7.80;7.00;;;16.40;99.90;;;;;;4973435;28;20454;-65
2023/10/10 09:17:12;;;;;;;9.00;7.17;;;16.50;99.90;;;;;;4973504;28;21012;-65
2023/10/10 09:19:46;;;;;;;8.23;7.43;;;16.70;99.90;;;;;;4973146;28;20449;-64
2023/10/10 09:22:28;;;;;;;8.77;7.17;;;16.80;99.90;;;;;;4973675;28;20533;-64
2023/10/10 09:24:56;;;;;;;9.30;8.50;;;17.00;99.90;;;;;;4959583;28;20468;-64
2023/10/10 09:27:27;;;;;;;9.60;7.67;;;17.10;99.90;;;;;;4981864;28;20453;-65
2023/10/10 09:29:56;;;;;;;7.50;6.80;;;17.30;99.90;;;;;;4971795;28;20483;-64
2023/10/10 09:32:35;;;;;;;12.33;6.97;;;17.40;99.90;;;;;;4981936;28;20549;-65
2023/10/10 09:35:05;;;;;;;9.07;7.00;;;17.50;99.90;;;;;;4975701;28;20446;-65
2023/10/10 09:37:38;;;;;;;8.00;6.90;;;17.60;99.90;;;;;;4980021;28;20512;-65
2023/10/10 09:40:15;;;;;;;9.83;7.63;;;17.80;99.90;;;;;;4972718;28;20489;-65
2023/10/10 09:43:03;;;;;;;8.40;7.60;;;17.90;99.90;;;;;;4979930;28;20825;-64
2023/10/10 09:45:52;;;;;;;8.90;7.50;;;18.00;99.90;;;;;;4980454;28;20541;-65
2023/10/10 09:48:28;;;;;;;8.80;7.70;;;18.10;99.90;;;;;;4971459;28;20456;-64
2023/10/10 09:51:15;;;;;;;7.63;6.57;;;18.20;99.90;;;;;;4979680;28;20950;-64
2023/10/10 09:53:46;;;;;;;8.40;7.60;;;18.30;99.90;;;;;;4972689;28;20535;-65
2023/10/10 09:56:15;;;;;;;7.73;6.43;;;18.50;99.90;;;;;;4972626;28;20966;-65
2023/10/10 09:58:46;;;;;;;8.90;8.00;;;18.60;99.90;;;;;;4972251;28;20494;-65
2023/10/10 10:01:22;;;;;;;8.43;7.40;;;18.70;99.90;;;;;;4972510;28;21047;-64
2023/10/10 10:04:00;;;;;;;7.97;7.03;;;18.80;99.90;;;;;;4972667;28;20536;-65
2023/10/10 10:06:55;;;;;;;7.43;6.73;;;18.90;99.90;;;;;;4976038;28;20864;-65
2023/10/10 10:10:09;;;;;;;6.27;5.67;;;19.10;99.90;;;;;;4972121;28;20826;-66
2023/10/10 10:13:13;;;;;;;7.67;5.63;;;19.20;99.90;;;;;;4972135;28;20538;-64
2023/10/10 10:15:59;;;;;;;7.47;5.60;;;19.40;99.90;;;;;;4928029;28;20495;-65
2023/10/10 10:18:44;;;;;;;7.60;6.53;;;19.60;99.90;;;;;;4972042;28;20487;-64
2023/10/10 10:21:20;;;;;;;7.23;6.50;;;19.80;99.90;;;;;;4972204;28;20498;-64
2023/10/10 10:23:56;;;;;;;8.33;6.53;;;20.10;99.90;;;;;;4972418;28;20449;-65
2023/10/10 10:26:34;;;;;;;7.47;6.10;;;20.30;99.90;;;;;;4971961;28;20512;-65
2023/10/10 10:29:15;;;;;;;9.50;5.77;;;20.50;99.90;;;;;;4956703;28;20449;-65
2023/10/10 10:31:49;;;;;;;8.90;5.27;;;20.70;99.90;;;;;;4971845;28;20569;-65
2023/10/10 10:34:24;;;;;;;10.23;5.90;;;20.90;99.90;;;;;;4971794;28;20978;-64
2023/10/10 10:36:56;;;;;;;7.40;6.53;;;21.10;99.90;;;;;;4970937;28;20521;-65
2023/10/10 10:39:25;;;;;;;5.63;5.07;;;21.20;99.90;;;;;;4971554;28;21010;-65
2023/10/10 10:41:59;;;;;;;6.17;5.63;;;21.30;99.90;;;;;;4971763;28;20470;-65
2023/10/10 10:44:53;;;;;;;7.50;6.70;;;21.50;99.90;;;;;;4971981;28;20457;-65
2023/10/10 10:47:48;;;;;;;7.93;5.80;;;21.60;99.90;;;;;;4971169;28;20439;-65
2023/10/10 10:50:45;;;;;;;6.57;5.97;;;21.70;99.90;;;;;;4971694;28;20999;-65
2023/10/10 10:53:32;;;;;;;6.27;5.67;;;21.80;99.90;;;;;;4971770;28;20478;-65
2023/10/10 11:01:42;;;;;;;7.27;5.30;;;22.00;98.40;;;;;;4971642;28;20550;-65
2023/10/10 11:04:14;;;;;;;5.80;5.20;;;22.10;98.00;;;;;;4970763;28;20451;-65
2023/10/10 11:06:50;;;;;;;5.90;4.63;;;22.10;96.20;;;;;;4971253;28;20459;-65
2023/10/10 11:09:28;;;;;;;6.63;5.43;;;22.10;96.40;;;;;;4971659;28;20454;-65
2023/10/10 11:12:02;;;;;;;8.20;5.80;;;22.20;96.30;;;;;;4971094;28;20478;-65
2023/10/10 11:14:30;;;;;;;8.90;5.30;;;22.30;95.80;;;;;;4971330;28;20448;-65
2023/10/10 11:16:57;;;;;;;7.03;6.03;;;22.40;95.70;;;;;;4971575;28;20922;-65
2023/10/10 11:19:38;;;;;;;6.77;5.90;;;22.50;96.10;;;;;;4970753;28;20531;-66
2023/10/10 11:22:12;;;;;;;6.23;4.70;;;22.70;95.80;;;;;;4970875;28;20990;-65
2023/10/10 11:24:39;;;;;;;6.53;5.70;;;22.90;95.20;;;;;;4971480;28;20459;-65
2023/10/10 11:27:14;;;;;;;8.37;5.57;;;23.00;94.30;;;;;;4971478;28;20527;-65
2023/10/10 11:29:45;;;;;;;6.13;5.53;;;23.10;94.40;;;;;;4971240;28;20444;-66
2023/10/10 11:32:13;;;;;;;6.20;5.60;;;23.20;94.70;;;;;;4971150;28;20487;-65
2023/10/10 11:34:45;;;;;;;6.80;6.10;;;23.30;94.20;;;;;;4971138;28;20559;-65
2023/10/10 11:37:20;;;;;;;5.73;5.23;;;23.40;94.10;;;;;;4970926;28;20484;-65
2023/10/10 11:39:48;;;;;;;7.47;5.47;;;23.40;93.60;;;;;;4970729;28;21076;-66
2023/10/10 11:42:26;;;;;;;7.80;6.50;;;23.50;94.00;;;;;;4970937;28;20464;-65
2023/10/10 11:45:00;;;;;;;6.03;5.43;;;23.70;94.00;;;;;;4956033;28;20482;-65
2023/10/10 11:47:27;;;;;;;7.93;5.53;;;23.70;92.70;;;;;;4970782;28;20440;-65
2023/10/10 11:50:01;;;;;;;6.67;5.13;;;23.70;92.80;;;;;;4970282;28;20602;-66
2023/10/10 11:52:29;;;;;;;6.97;5.60;;;23.70;92.10;;;;;;4972881;28;21002;-65
2023/10/10 11:54:58;;;;;;;7.17;6.20;;;23.80;91.60;;;;;;4974825;28;20440;-65
2023/10/10 11:57:28;;;;;;;6.87;5.57;;;23.80;92.40;;;;;;4974855;28;20483;-65
2023/10/10 11:59:59;;;;;;;7.13;4.83;;;23.90;92.60;;;;;;4974714;28;20480;-65
2023/10/10 12:02:39;;;;;;;9.63;5.57;;;24.00;92.60;;;;;;4974287;28;20468;-66
2023/10/10 12:05:25;;;;;;;7.90;5.70;;;24.10;92.50;;;;;;4975054;28;21120;-66
2023/10/10 12:07:53;;;;;;;7.20;5.80;;;24.30;92.20;;;;;;4974509;28;20529;-65
2023/10/10 12:10:23;;;;;;;5.97;5.23;;;24.50;92.40;;;;;;4974703;28;20457;-65
2023/10/10 12:12:53;;;;;;;6.00;5.47;;;24.60;92.40;;;;;;4954902;29;20496;-65
2023/10/10 12:15:22;;;;;;;9.60;6.57;;;24.70;91.50;;;;;;4962450;28;20452;-65
2023/10/10 12:17:51;;;;;;;6.10;5.10;;;24.80;91.60;;;;;;4973011;28;21044;-66
2023/10/10 12:20:18;;;;;;;7.87;6.40;;;24.90;91.50;;;;;;4974387;28;21030;-65
2023/10/10 12:22:45;;;;;;;7.33;5.80;;;25.00;90.60;;;;;;4974275;28;20547;-65
2023/10/10 12:25:14;;;;;;;7.07;6.30;;;25.00;90.40;;;;;;4974204;28;20528;-65
2023/10/10 12:27:46;;;;;;;6.30;5.27;;;25.10;90.50;;;;;;4974071;28;20452;-65
2023/10/10 12:30:18;;;;;;;7.37;6.20;;;;;;;;;;4974375;28;20456;-66
2023/10/10 12:32:49;;;;;;;11.20;6.07;;;25.40;90.70;;;;;;4973944;28;20482;-65
2023/10/10 12:35:16;;;;;;;8.50;6.33;;;25.50;90.60;;;;;;4974238;28;20975;-66
2023/10/10 12:37:44;;;;;;;9.73;5.90;;;25.70;90.10;;;;;;4973472;28;20590;-65
2023/10/10 12:40:11;;;;;;;8.00;7.00;;;25.70;89.90;;;;;;4974105;28;20451;-65
2023/10/10 12:42:38;;;;;;;5.77;5.27;;;25.70;89.80;;;;;;4974036;28;20544;-66
2023/10/10 12:45:06;;;;;;;7.13;6.27;;;25.80;90.30;;;;;;4974118;28;20543;-65
2023/10/10 12:47:33;;;;;;;7.03;5.53;;;25.90;87.60;;;;;;4973799;28;20452;-65
2023/10/10 12:50:04;;;;;;;9.97;6.13;;;25.90;86.20;;;;;;4973136;28;20475;-65
2023/10/10 12:52:35;;;;;;;6.33;5.50;;;25.80;84.80;;;;;;4973547;28;20476;-66
2023/10/10 12:55:09;;;;;;;9.90;5.53;;;25.70;85.10;;;;;;4973201;28;20463;-66
2023/10/10 12:57:36;;;;;;;6.53;5.90;;;25.70;87.80;;;;;;4973420;28;20965;-66
2023/10/10 13:02:45;;;;;;;5.50;5.00;;;25.70;87.00;;;;;;4969794;28;20555;-66
2023/10/10 13:05:13;;;;;;;5.87;5.23;;;25.80;86.60;;;;;;4972380;28;20442;-65
2023/10/10 13:07:41;;;;;;;6.73;5.90;;;25.80;86.00;;;;;;4972519;28;20444;-65
2023/10/10 13:10:11;;;;;;;8.00;6.50;;;25.90;86.90;;;;;;4973283;28;20457;-66
2023/10/10 13:12:38;;;;;;;7.60;5.90;;;26.00;86.70;;;;;;4973461;28;20482;-66
2023/10/10 13:15:18;;;;;;;9.33;6.73;;;26.20;86.60;;;;;;4973296;28;20436;-65
2023/10/10 13:17:53;;;;;;;7.57;5.30;;;26.30;87.10;;;;;;4973185;28;20490;-65
2023/10/10 13:20:22;;;;;;;6.63;5.10;;;26.30;83.10;;;;;;4973388;28;20448;-65
2023/10/10 13:22:50;;;;;;;6.13;5.53;;;26.40;84.30;;;;;;4972822;28;20487;-66
2023/10/10 13:25:18;;;;;;;6.50;5.80;;;26.50;81.70;;;;;;4973174;28;20996;-65
2023/10/10 13:27:47;;;;;;;7.87;5.97;;;26.60;84.00;;;;;;4972802;28;20959;-66
2023/10/10 13:30:14;;;;;;;5.90;5.40;;;26.50;81.90;;;;;;4973480;28;20453;-66
2023/10/10 13:32:42;;;;;;;4.80;4.40;;;26.50;84.00;;;;;;4972799;28;20481;-66
2023/10/10 13:35:10;;;;;;;5.87;5.27;;;26.70;84.50;;;;;;4972653;28;20449;-66
2023/10/10 13:37:41;;;;;;;7.07;6.37;;;26.80;84.20;;;;;;4972844;28;20449;-66
2023/10/10 13:40:20;;;;;;;6.83;6.23;;;26.80;81.30;;;;;;4972942;28;20454;-66
2023/10/10 13:42:47;;;;;;;6.37;5.43;;;26.70;81.40;;;;;;4972699;28;20472;-65
2023/10/10 13:45:19;;;;;;;5.73;5.20;;;26.60;82.80;;;;;;4972940;28;20942;-65
2023/10/10 13:47:48;;;;;;;6.33;5.70;;;26.60;85.20;;;;;;4972646;28;20456;-66
2023/10/10 13:50:31;;;;;;;10.07;6.80;;;26.50;84.30;;;;;;4972662;28;20508;-65
2023/10/10 13:52:59;;;;;;;7.27;6.00;;;26.60;84.20;;;;;;4972903;28;20474;-65
2023/10/10 13:55:29;;;;;;;8.30;5.70;;;26.50;84.90;;;;;;4972930;28;20445;-65
2023/10/10 13:57:57;;;;;;;5.40;4.17;;;26.40;81.50;;;;;;4972480;28;20487;-65
2023/10/10 14:00:29;;;;;;;8.23;6.37;;;26.40;84.60;;;;;;4972564;28;20444;-65
2023/10/10 14:02:59;;;;;;;6.40;4.97;;;26.40;85.20;;;;;;4972299;28;20476;-66
2023/10/10 14:05:29;;;;;;;7.10;5.70;;;26.50;85.70;;;;;;4972239;28;20457;-65
2023/10/10 14:07:56;;;;;;;5.93;5.03;;;26.60;85.10;;;;;;4972306;28;20451;-65
2023/10/10 14:10:24;;;;;;;12.57;6.10;;;26.60;84.60;;;;;;4971613;28;20459;-64
2023/10/10 14:12:51;;;;;;;8.87;4.53;;;26.70;86.10;;;;;;4977291;28;20461;-65
2023/10/10 14:15:19;;;;;;;7.23;5.07;;;26.70;84.20;;;;;;4971509;28;20454;-65
2023/10/10 14:17:47;;;;;;;5.30;4.53;;;26.90;85.90;;;;;;4971185;28;21203;-65
2023/10/10 14:20:21;;;;;;;7.20;4.40;;;27.10;83.30;;;;;;4971847;28;20460;-65
2023/10/10 14:22:49;;;;;;;6.17;4.70;;;27.30;80.60;;;;;;4971776;28;20470;-65
2023/10/10 14:25:17;;;;;;;5.63;5.10;;;27.60;81.70;;;;;;4971695;28;20978;-65
2023/10/10 14:27:45;;;;;;;6.97;4.80;;;28.10;81.10;;;;;;4971229;28;20491;-66
2023/10/10 14:30:21;;;;;;;6.60;4.97;;;28.60;78.90;;;;;;4971395;28;20989;-66
2023/10/10 14:32:53;;;;;;;4.67;4.20;;;29.00;74.60;;;;;;4971022;28;20558;-65
2023/10/10 14:35:23;;;;;;;7.50;4.53;;;29.40;76.30;;;;;;4971851;28;20527;-66
2023/10/10 14:37:56;;;;;;;6.60;4.70;;;29.80;74.10;;;;;;4971263;28;20890;-65
2023/10/10 14:40:24;;;;;;;10.23;4.83;;;30.10;69.20;;;;;;4971461;28;20451;-65
2023/10/10 14:42:53;;;;;;;6.60;4.60;;;30.50;69.10;;;;;;4970634;28;20468;-65
2023/10/10 14:45:24;;;;;;;8.33;4.80;;;30.80;64.70;;;;;;4971367;28;20441;-65
2023/10/10 14:47:51;;;;;;;8.30;6.10;;;31.10;65.30;;;;;;4971255;28;20445;-65
2023/10/10 14:50:23;;;;;;;6.47;5.00;;;31.40;61.70;;;;;;4970920;28;20463;-66
2023/10/10 14:52:50;;;;;;;6.43;5.03;;;31.60;61.70;;;;;;4951887;29;20475;-62
2023/10/10 14:55:25;;;;;;;8.03;5.60;;;31.70;61.20;;;;;;4959277;28;20547;-64
2023/10/10 14:57:55;;;;;;;5.83;5.20;;;31.80;60.40;;;;;;4971137;28;20476;-63
2023/10/10 15:00:24;;;;;;;5.40;5.00;;;31.90;62.20;;;;;;4971415;28;20482;-64
2023/10/10 15:02:53;;;;;;;7.47;4.70;;;32.00;61.30;;;;;;4955587;28;20465;-63
2023/10/10 15:05:23;;;;;;;7.63;4.93;;;32.20;59.40;;;;;;4970934;28;20453;-62
2023/10/10 15:07:52;;;;;;;5.93;4.93;;;;;;;;;;4970903;28;21023;-63
2023/10/10 15:10:25;;;;;;;5.10;4.60;;;32.30;57.50;;;;;;4971469;28;20451;-63